createdAt,value
2017-04-08T00:00:24.383Z,84.59
2017-04-08T00:01:24.419Z,84.69
2017-04-08T00:02:24.451Z,84.69
2017-04-08T00:03:24.488Z,84.69
2017-04-08T00:04:24.524Z,84.78
2017-04-08T00:05:24.561Z,84.4
2017-04-08T00:06:24.599Z,84.4
2017-04-08T00:07:24.631Z,84.59
2017-04-08T00:08:24.971Z,84.59
2017-04-08T00:09:24.706Z,84.69
2017-04-08T00:10:24.739Z,84.4
2017-04-08T00:11:24.791Z,84.49
2017-04-08T00:12:24.814Z,85.06
2017-04-08T00:13:24.853Z,84.97
2017-04-08T00:14:24.883Z,84.78
2017-04-08T00:15:24.922Z,84.88
2017-04-08T00:16:24.969Z,84.97
2017-04-08T00:17:24.992Z,84.88
2017-04-08T00:18:25.033Z,85.06
2017-04-08T00:19:25.064Z,84.88
2017-04-08T00:20:25.103Z,84.97
2017-04-08T00:21:25.137Z,84.78
2017-04-08T00:22:25.174Z,84.78
2017-04-08T00:23:25.206Z,84.78
2017-04-08T00:24:25.243Z,84.78
2017-04-08T00:25:25.282Z,84.69
2017-04-08T00:26:25.315Z,84.78
2017-04-08T00:27:25.351Z,84.78
2017-04-08T00:28:25.387Z,84.97
2017-04-08T00:29:25.425Z,85.06
2017-04-08T00:30:25.463Z,84.78
2017-04-08T00:31:25.808Z,84.78
2017-04-08T00:32:25.534Z,85.06
2017-04-08T00:33:25.569Z,85.25
2017-04-08T00:34:25.609Z,85.06
2017-04-08T00:35:25.642Z,85.06
2017-04-08T00:36:25.679Z,84.78
2017-04-08T00:37:26.017Z,85.25
2017-04-08T00:38:32.026Z,84.97
2017-04-08T00:39:25.788Z,85.64
2017-04-08T00:40:26.132Z,84.78
2017-04-08T00:41:25.871Z,85.35
2017-04-08T00:42:25.897Z,85.45
2017-04-08T00:43:26.011Z,85.45
2017-04-08T00:44:25.971Z,85.16
2017-04-08T00:45:26.004Z,85.45
2017-04-08T00:46:26.039Z,85.06
2017-04-08T00:47:26.078Z,85.06
2017-04-08T00:48:26.112Z,85.16
2017-04-08T00:49:26.149Z,85.25
2017-04-08T00:50:26.191Z,85.25
2017-04-08T00:51:26.220Z,85.16
2017-04-08T00:52:26.257Z,85.25
2017-04-08T00:53:26.293Z,85.25
2017-04-08T00:54:26.332Z,84.88
2017-04-08T00:55:26.369Z,85.16
2017-04-08T00:56:26.401Z,85.16
2017-04-08T00:57:26.439Z,85.06
2017-04-08T00:58:26.473Z,85.16
2017-04-08T00:59:26.509Z,85.45
2017-04-08T01:00:26.545Z,84.97
2017-04-08T01:01:26.586Z,85.45
2017-04-08T01:02:26.618Z,85.25
2017-04-08T01:03:26.654Z,85.45
2017-04-08T01:04:26.697Z,85.25
2017-04-08T01:05:26.739Z,85.25
2017-04-08T01:06:26.821Z,85.25
2017-04-08T01:07:26.798Z,85.45
2017-04-08T01:08:26.840Z,85.45
2017-04-08T01:09:26.896Z,85.35
2017-04-08T01:10:26.909Z,84.78
2017-04-08T01:11:26.946Z,85.16
2017-04-08T01:12:26.984Z,84.88
2017-04-08T01:13:27.017Z,84.88
2017-04-08T01:14:27.093Z,84.78
2017-04-08T01:15:27.091Z,85.25
2017-04-08T01:16:27.126Z,84.88
2017-04-08T01:17:27.161Z,84.78
2017-04-08T01:18:27.503Z,84.88
2017-04-08T01:19:27.252Z,85.35
2017-04-08T01:20:27.269Z,84.97
2017-04-08T01:21:27.305Z,84.78
2017-04-08T01:22:27.367Z,84.69
2017-04-08T01:23:27.375Z,84.78
2017-04-08T01:24:27.412Z,84.97
2017-04-08T01:25:27.451Z,84.78
2017-04-08T01:26:27.488Z,85.06
2017-04-08T01:27:27.522Z,85.06
2017-04-08T01:28:27.557Z,84.4
2017-04-08T01:29:27.599Z,84.4
2017-04-08T01:30:27.633Z,84.2
2017-04-08T01:31:27.676Z,84.59
2017-04-08T01:32:27.705Z,84.88
2017-04-08T01:33:27.774Z,84.88
2017-04-08T01:34:27.784Z,84.88
2017-04-08T01:35:27.812Z,84.69
2017-04-08T01:36:27.847Z,84.3
2017-04-08T01:37:27.887Z,84.4
2017-04-08T01:38:27.937Z,84.2
2017-04-08T01:39:27.959Z,84.49
2017-04-08T01:40:27.992Z,84.59
2017-04-08T01:41:28.029Z,84.59
2017-04-08T01:42:28.067Z,84.3
2017-04-08T01:43:28.442Z,84.69
2017-04-08T01:44:28.137Z,84.3
2017-04-08T01:45:28.174Z,84.4
2017-04-08T01:46:28.222Z,84.4
2017-04-08T01:47:28.242Z,84.4
2017-04-08T01:48:28.279Z,84.3
2017-04-08T01:49:28.322Z,84.3
2017-04-08T01:50:28.357Z,84.69
2017-04-08T01:51:28.390Z,84.78
2017-04-08T01:52:28.429Z,84.78
2017-04-08T01:53:28.462Z,83.83
2017-04-08T01:54:28.498Z,83.92
2017-04-08T01:55:28.539Z,83.92
2017-04-08T01:56:28.571Z,84.01
2017-04-08T01:57:28.608Z,84.11
2017-04-08T01:58:28.641Z,84.01
2017-04-08T01:59:28.684Z,84.49
2017-04-08T02:00:28.714Z,84.59
2017-04-08T02:01:28.748Z,84.01
2017-04-08T02:02:28.799Z,83.83
2017-04-08T02:03:28.823Z,83.83
2017-04-08T02:04:28.858Z,84.11
2017-04-08T02:05:28.896Z,84.11
2017-04-08T02:06:28.933Z,84.3
2017-04-08T02:07:28.971Z,83.73
2017-04-08T02:08:29.005Z,83.92
2017-04-08T02:09:29.040Z,84.2
2017-04-08T02:10:29.077Z,84.11
2017-04-08T02:11:29.112Z,84.11
2017-04-08T02:12:29.149Z,84.01
2017-04-08T02:13:29.188Z,84.01
2017-04-08T02:14:29.220Z,84.01
2017-04-08T02:15:29.256Z,83.83
2017-04-08T02:16:29.296Z,83.73
2017-04-08T02:17:29.326Z,83.83
2017-04-08T02:18:29.368Z,83.92
2017-04-08T02:19:29.422Z,84.01
2017-04-08T02:20:29.435Z,83.44
2017-04-08T02:21:29.470Z,83.83
2017-04-08T02:22:29.546Z,83.35
2017-04-08T02:23:29.547Z,83.44
2017-04-08T02:24:29.583Z,83.35
2017-04-08T02:25:29.616Z,83.64
2017-04-08T02:26:29.659Z,83.54
2017-04-08T02:27:29.689Z,83.35
2017-04-08T02:28:29.726Z,83.64
2017-04-08T02:29:30.066Z,83.73
2017-04-08T02:30:29.799Z,83.73
2017-04-08T02:31:29.834Z,83.35
2017-04-08T02:32:29.870Z,83.73
2017-04-08T02:33:29.904Z,83.44
2017-04-08T02:34:29.959Z,83.64
2017-04-08T02:35:30.281Z,83.44
2017-04-08T02:36:30.009Z,83.73
2017-04-08T02:37:30.056Z,83.16
2017-04-08T02:38:30.083Z,83.44
2017-04-08T02:39:30.135Z,84.01
2017-04-08T02:40:30.158Z,83.73
2017-04-08T02:41:30.222Z,83.73
2017-04-08T02:42:30.227Z,83.25
2017-04-08T02:43:30.263Z,83.25
2017-04-08T02:44:30.298Z,83.25
2017-04-08T02:45:30.337Z,83.25
2017-04-08T02:46:30.370Z,83.06
2017-04-08T02:47:30.407Z,83.44
2017-04-08T02:48:30.442Z,83.44
2017-04-08T02:49:30.488Z,83.44
2017-04-08T02:50:30.529Z,83.25
2017-04-08T02:51:30.857Z,83.35
2017-04-08T02:52:30.584Z,83.35
2017-04-08T02:53:30.622Z,83.44
2017-04-08T02:54:30.661Z,83.35
2017-04-08T02:55:30.713Z,83.35
2017-04-08T02:56:30.730Z,83.44
2017-04-08T02:57:30.769Z,83.25
2017-04-08T02:58:30.804Z,83.44
2017-04-08T02:59:30.839Z,83.12
2017-04-08T03:00:30.889Z,82.73
2017-04-08T03:01:30.936Z,82.73
2017-04-08T03:02:30.945Z,83.21
2017-04-08T03:03:30.981Z,82.78
2017-04-08T03:04:31.014Z,83.16
2017-04-08T03:05:31.055Z,82.97
2017-04-08T03:06:31.099Z,82.59
2017-04-08T03:07:31.129Z,82.73
2017-04-08T03:08:31.161Z,82.59
2017-04-08T03:09:31.199Z,83.21
2017-04-08T03:10:31.235Z,83.31
2017-04-08T03:11:31.267Z,83.21
2017-04-08T03:12:31.305Z,82.64
2017-04-08T03:13:31.345Z,82.92
2017-04-08T03:14:31.375Z,82.59
2017-04-08T03:15:31.413Z,82.54
2017-04-08T03:16:31.452Z,82.54
2017-04-08T03:17:31.484Z,83.12
2017-04-08T03:18:31.520Z,83.02
2017-04-08T03:19:31.560Z,82.35
2017-04-08T03:20:31.593Z,83.31
2017-04-08T03:21:31.639Z,82.92
2017-04-08T03:22:31.664Z,82.83
2017-04-08T03:23:31.703Z,83.16
2017-04-08T03:24:31.739Z,82.54
2017-04-08T03:25:31.772Z,82.54
2017-04-08T03:26:31.859Z,82.64
2017-04-08T03:27:31.847Z,82.83
2017-04-08T03:28:31.879Z,82.35
2017-04-08T03:29:31.914Z,82.54
2017-04-08T03:30:31.952Z,82.73
2017-04-08T03:31:31.989Z,82.64
2017-04-08T03:32:32.025Z,82.54
2017-04-08T03:33:32.059Z,82.73
2017-04-08T03:34:32.104Z,82.64
2017-04-08T03:35:32.132Z,82.92
2017-04-08T03:36:32.166Z,82.73
2017-04-08T03:37:32.202Z,82.54
2017-04-08T03:38:32.235Z,82.73
2017-04-08T03:39:32.273Z,82.73
2017-04-08T03:40:32.311Z,82.73
2017-04-08T03:41:32.350Z,82.73
2017-04-08T03:42:32.380Z,82.73
2017-04-08T03:43:32.414Z,82.83
2017-04-08T03:44:32.454Z,82.83
2017-04-08T03:45:32.487Z,82.92
2017-04-08T03:46:32.526Z,82.73
2017-04-08T03:47:32.559Z,82.92
2017-04-08T03:48:32.593Z,82.83
2017-04-08T03:49:32.631Z,82.83
2017-04-08T03:50:32.671Z,82.92
2017-04-08T03:51:32.702Z,82.83
2017-04-08T03:52:32.746Z,82.83
2017-04-08T03:53:32.776Z,82.92
2017-04-08T03:54:32.811Z,82.83
2017-04-08T03:55:32.855Z,82.83
2017-04-08T03:56:32.879Z,82.83
2017-04-08T03:57:32.922Z,82.83
2017-04-08T03:58:32.959Z,82.83
2017-04-08T03:59:32.992Z,82.92
2017-04-08T04:00:33.025Z,83.12
2017-04-08T04:01:33.074Z,83.12
2017-04-08T04:02:33.093Z,83.02
2017-04-08T04:03:33.135Z,83.02
2017-04-08T04:04:33.166Z,82.92
2017-04-08T04:05:33.205Z,82.92
2017-04-08T04:06:33.261Z,82.45
2017-04-08T04:07:33.274Z,82.07
2017-04-08T04:08:33.313Z,82.07
2017-04-08T04:09:33.349Z,82.26
2017-04-08T04:10:33.388Z,82.07
2017-04-08T04:11:33.418Z,82.35
2017-04-08T04:12:33.456Z,82.07
2017-04-08T04:13:33.489Z,82.07
2017-04-08T04:14:33.528Z,82.64
2017-04-08T04:15:33.559Z,82.07
2017-04-08T04:16:33.622Z,82.07
2017-04-08T04:17:33.635Z,82.07
2017-04-08T04:18:33.665Z,81.88
2017-04-08T04:19:33.706Z,82.35
2017-04-08T04:20:33.736Z,81.97
2017-04-08T04:21:33.780Z,82.26
2017-04-08T04:22:33.812Z,82.17
2017-04-08T04:23:33.851Z,82.35
2017-04-08T04:24:33.893Z,82.26
2017-04-08T04:25:33.918Z,82.45
2017-04-08T04:26:33.953Z,82.17
2017-04-08T04:27:33.994Z,82.17
2017-04-08T04:28:34.031Z,82.35
2017-04-08T04:29:34.066Z,82.26
2017-04-08T04:30:34.105Z,82.45
2017-04-08T04:31:34.132Z,81.78
2017-04-08T04:32:34.170Z,82.35
2017-04-08T04:33:34.227Z,82.35
2017-04-08T04:34:34.241Z,82.17
2017-04-08T04:35:34.294Z,82.07
2017-04-08T04:36:34.315Z,81.88
2017-04-08T04:37:34.346Z,81.78
2017-04-08T04:38:34.382Z,81.97
2017-04-08T04:39:34.419Z,82.17
2017-04-08T04:40:34.453Z,82.54
2017-04-08T04:41:34.492Z,81.97
2017-04-08T04:42:34.524Z,81.88
2017-04-08T04:43:34.559Z,81.88
2017-04-08T04:44:34.597Z,81.88
2017-04-08T04:45:34.633Z,81.78
2017-04-08T04:46:34.672Z,81.78
2017-04-08T04:47:34.705Z,81.97
2017-04-08T04:48:34.743Z,82.07
2017-04-08T04:49:34.775Z,81.88
2017-04-08T04:50:34.815Z,81.78
2017-04-08T04:51:34.847Z,81.97
2017-04-08T04:52:34.885Z,81.97
2017-04-08T04:53:35.232Z,81.97
2017-04-08T04:54:34.973Z,82.07
2017-04-08T04:55:35.331Z,81.49
2017-04-08T04:56:35.034Z,81.3
2017-04-08T04:57:35.062Z,81.68
2017-04-08T04:58:35.102Z,81.49
2017-04-08T04:59:35.145Z,81.88
2017-04-08T05:00:35.172Z,81.49
2017-04-08T05:01:35.214Z,81.59
2017-04-08T05:02:35.285Z,81.68
2017-04-08T05:03:35.279Z,81.68
2017-04-08T05:04:35.317Z,81.78
2017-04-08T05:05:35.352Z,81.68
2017-04-08T05:06:35.382Z,81.88
2017-04-08T05:07:35.421Z,81.49
2017-04-08T05:08:35.458Z,81.68
2017-04-08T05:09:35.796Z,81.88
2017-04-08T05:10:35.529Z,81.49
2017-04-08T05:11:35.561Z,81.3
2017-04-08T05:12:35.600Z,81.88
2017-04-08T05:13:35.635Z,81.68
2017-04-08T05:14:35.672Z,81.49
2017-04-08T05:15:35.706Z,81.49
2017-04-08T05:16:35.743Z,81.4
2017-04-08T05:17:35.782Z,81.68
2017-04-08T05:18:35.812Z,81.78
2017-04-08T05:19:35.850Z,81.49
2017-04-08T05:20:35.887Z,81.78
2017-04-08T05:21:35.923Z,81.68
2017-04-08T05:22:35.960Z,81.78
2017-04-08T05:23:35.998Z,81.49
2017-04-08T05:24:36.026Z,81.68
2017-04-08T05:25:36.066Z,81.68
2017-04-08T05:26:36.101Z,81.68
2017-04-08T05:27:36.138Z,81.68
2017-04-08T05:28:36.483Z,81.68
2017-04-08T05:29:36.218Z,81.68
2017-04-08T05:30:36.247Z,81.49
2017-04-08T05:31:36.279Z,81.49
2017-04-08T05:32:36.316Z,81.68
2017-04-08T05:33:36.354Z,81.78
2017-04-08T05:34:36.403Z,81.68
2017-04-08T05:35:36.425Z,81.3
2017-04-08T05:36:36.462Z,81.88
2017-04-08T05:37:36.497Z,81.59
2017-04-08T05:38:36.530Z,81.78
2017-04-08T05:39:36.565Z,81.68
2017-04-08T05:40:36.605Z,81.78
2017-04-08T05:41:36.638Z,81.78
2017-04-08T05:42:36.998Z,81.4
2017-04-08T05:43:36.714Z,81.68
2017-04-08T05:44:36.746Z,81.59
2017-04-08T05:45:36.786Z,81.12
2017-04-08T05:46:36.819Z,81.12
2017-04-08T05:47:36.860Z,81.12
2017-04-08T05:48:36.892Z,81.4
2017-04-08T05:49:36.926Z,81.49
2017-04-08T05:50:36.962Z,81.49
2017-04-08T05:51:36.996Z,82.07
2017-04-08T05:52:37.041Z,81.49
2017-04-08T05:53:37.072Z,81.02
2017-04-08T05:54:37.118Z,81.12
2017-04-08T05:55:37.143Z,80.92
2017-04-08T05:56:37.176Z,81.21
2017-04-08T05:57:37.219Z,81.21
2017-04-08T05:58:37.276Z,81.12
2017-04-08T05:59:37.288Z,81.21
2017-04-08T06:00:37.321Z,81.02
2017-04-08T06:01:37.357Z,81.3
2017-04-08T06:02:37.394Z,81.49
2017-04-08T06:03:37.439Z,81.4
2017-04-08T06:04:37.463Z,81.4
2017-04-08T06:05:37.505Z,81.3
2017-04-08T06:06:37.537Z,81.3
2017-04-08T06:07:37.575Z,81.3
2017-04-08T06:08:37.618Z,81.3
2017-04-08T06:09:37.648Z,81.4
2017-04-08T06:10:37.986Z,81.49
2017-04-08T06:11:37.718Z,81.4
2017-04-08T06:12:37.794Z,81.49
2017-04-08T06:13:37.801Z,81.21
2017-04-08T06:14:37.832Z,81.21
2017-04-08T06:15:37.865Z,80.92
2017-04-08T06:16:37.904Z,80.73
2017-04-08T06:17:37.936Z,81.12
2017-04-08T06:18:37.975Z,81.02
2017-04-08T06:19:38.012Z,81.3
2017-04-08T06:20:38.053Z,81.15
2017-04-08T06:21:38.100Z,81.3
2017-04-08T06:22:38.119Z,81.21
2017-04-08T06:23:38.159Z,81.35
2017-04-08T06:24:38.190Z,80.96
2017-04-08T06:25:38.230Z,81.15
2017-04-08T06:26:38.264Z,80.96
2017-04-08T06:27:38.306Z,81.15
2017-04-08T06:28:38.337Z,81.25
2017-04-08T06:29:38.376Z,80.96
2017-04-08T06:30:38.409Z,81.25
2017-04-08T06:31:38.445Z,81.25
2017-04-08T06:32:38.479Z,80.96
2017-04-08T06:33:38.519Z,80.87
2017-04-08T06:34:38.553Z,81.06
2017-04-08T06:35:38.590Z,81.06
2017-04-08T06:36:38.627Z,80.87
2017-04-08T06:37:38.663Z,81.06
2017-04-08T06:38:38.703Z,81.06
2017-04-08T06:39:38.734Z,80.96
2017-04-08T06:40:38.773Z,80.87
2017-04-08T06:41:38.812Z,81.06
2017-04-08T06:42:38.848Z,81.06
2017-04-08T06:43:38.880Z,81.15
2017-04-08T06:44:38.918Z,80.87
2017-04-08T06:45:38.971Z,80.87
2017-04-08T06:46:39.007Z,81.06
2017-04-08T06:47:39.061Z,80.96
2017-04-08T06:48:39.073Z,80.68
2017-04-08T06:49:39.099Z,80.68
2017-04-08T06:50:39.148Z,80.68
2017-04-08T06:51:39.178Z,80.68
2017-04-08T06:52:39.209Z,80.96
2017-04-08T06:53:39.250Z,80.58
2017-04-08T06:54:39.311Z,80.77
2017-04-08T06:55:39.318Z,80.68
2017-04-08T06:56:39.362Z,80.87
2017-04-08T06:57:39.392Z,80.68
2017-04-08T06:58:39.734Z,80.68
2017-04-08T06:59:39.470Z,80.49
2017-04-08T07:00:39.502Z,80.68
2017-04-08T07:01:39.541Z,80.68
2017-04-08T07:02:39.578Z,80.68
2017-04-08T07:03:39.611Z,80.77
2017-04-08T07:04:39.649Z,80.58
2017-04-08T07:05:39.683Z,80.3
2017-04-08T07:06:39.727Z,80.87
2017-04-08T07:07:39.758Z,80.2
2017-04-08T07:08:39.800Z,80.77
2017-04-08T07:09:39.831Z,80.3
2017-04-08T07:10:39.874Z,80.2
2017-04-08T07:11:39.908Z,80.49
2017-04-08T07:12:39.939Z,80.68
2017-04-08T07:13:39.978Z,80.11
2017-04-08T07:14:40.017Z,79.86
2017-04-08T07:15:40.068Z,80.01
2017-04-08T07:16:40.087Z,79.96
2017-04-08T07:17:40.127Z,80.33
2017-04-08T07:18:40.163Z,80.43
2017-04-08T07:19:40.215Z,80.11
2017-04-08T07:20:40.235Z,80.24
2017-04-08T07:21:40.273Z,80.24
2017-04-08T07:22:40.321Z,79.67
2017-04-08T07:23:40.349Z,79.57
2017-04-08T07:24:40.382Z,79.86
2017-04-08T07:25:40.427Z,80.15
2017-04-08T07:26:40.458Z,79.57
2017-04-08T07:27:40.499Z,79.77
2017-04-08T07:28:40.541Z,79.48
2017-04-08T07:29:40.571Z,79.86
2017-04-08T07:30:40.606Z,79.57
2017-04-08T07:31:40.646Z,79.77
2017-04-08T07:32:40.680Z,79.19
2017-04-08T07:33:40.718Z,79.86
2017-04-08T07:34:40.751Z,79.38
2017-04-08T07:35:40.814Z,79.67
2017-04-08T07:36:40.831Z,79.19
2017-04-08T07:37:40.864Z,79.77
2017-04-08T07:38:40.906Z,79.19
2017-04-08T07:39:40.945Z,79.19
2017-04-08T07:40:40.978Z,79.48
2017-04-08T07:41:41.015Z,79.86
2017-04-08T07:42:41.053Z,79.28
2017-04-08T07:43:41.096Z,79.28
2017-04-08T07:44:41.126Z,79.28
2017-04-08T07:45:41.164Z,79.28
2017-04-08T07:46:41.203Z,79.38
2017-04-08T07:47:41.243Z,79.19
2017-04-08T07:48:41.278Z,79.28
2017-04-08T07:49:41.314Z,78.33
2017-04-08T07:50:41.350Z,78.81
2017-04-08T07:51:41.393Z,79.19
2017-04-08T07:52:41.425Z,79.23
2017-04-08T07:53:41.466Z,79.04
2017-04-08T07:54:41.501Z,79.04
2017-04-08T07:55:41.536Z,78.66
2017-04-08T07:56:41.579Z,79.04
2017-04-08T07:57:41.615Z,78.56
2017-04-08T07:58:41.654Z,78.28
2017-04-08T07:59:41.690Z,78.37
2017-04-08T08:00:41.726Z,78.66
2017-04-08T08:01:41.769Z,78.56
2017-04-08T08:02:41.801Z,78.75
2017-04-08T08:03:41.841Z,78.66
2017-04-08T08:04:41.878Z,78.47
2017-04-08T08:05:42.225Z,78.75
2017-04-08T08:06:41.949Z,78.75
2017-04-08T08:07:42.006Z,78.94
2017-04-08T08:08:42.030Z,78.94
2017-04-08T08:09:42.070Z,78.47
2017-04-08T08:10:42.100Z,78.94
2017-04-08T08:11:42.143Z,77.99
2017-04-08T08:12:42.205Z,78.03
2017-04-08T08:13:42.215Z,78.31
2017-04-08T08:14:42.255Z,77.84
2017-04-08T08:15:42.303Z,78.22
2017-04-08T08:16:42.329Z,78.03
2017-04-08T08:17:42.370Z,78.03
2017-04-08T08:18:42.406Z,77.74
2017-04-08T08:19:42.444Z,78.03
2017-04-08T08:20:42.486Z,77.94
2017-04-08T08:21:42.519Z,77.94
2017-04-08T08:22:42.564Z,77.65
2017-04-08T08:23:42.602Z,77.74
2017-04-08T08:24:42.640Z,77.45
2017-04-08T08:25:42.677Z,76.88
2017-04-08T08:26:42.716Z,77.08
2017-04-08T08:27:42.753Z,76.79
2017-04-08T08:28:42.800Z,76.92
2017-04-08T08:29:42.845Z,77.21
2017-04-08T08:30:42.867Z,76.73
2017-04-08T08:31:42.907Z,76.73
2017-04-08T08:32:42.945Z,76.82
2017-04-08T08:33:42.986Z,76.82
2017-04-08T08:34:43.053Z,76.73
2017-04-08T08:35:43.062Z,77.11
2017-04-08T08:36:43.097Z,75.96
2017-04-08T08:37:43.148Z,76.25
2017-04-08T08:38:43.178Z,76.45
2017-04-08T08:39:43.434Z,76.64
2017-04-08T08:40:43.251Z,76.39
2017-04-08T08:41:43.290Z,76.1
2017-04-08T08:42:43.329Z,76.29
2017-04-08T08:43:43.374Z,76.2
2017-04-08T08:44:43.409Z,76.39
2017-04-08T08:45:43.447Z,75.91
2017-04-08T08:46:43.486Z,75.81
2017-04-08T08:47:43.828Z,75.24
2017-04-08T08:48:43.867Z,75.52
2017-04-08T08:49:43.600Z,75.24
2017-04-08T08:50:43.643Z,74.76
2017-04-08T08:51:43.677Z,74.85
2017-04-08T08:52:43.719Z,74.76
2017-04-08T08:53:43.756Z,74.85
2017-04-08T08:54:43.800Z,74.38
2017-04-08T08:55:43.837Z,74.48
2017-04-08T08:56:43.881Z,73.99
2017-04-08T08:57:43.914Z,74.22
2017-04-08T08:58:44.172Z,74.41
2017-04-08T08:59:43.989Z,74.19
2017-04-08T09:00:44.032Z,73.99
2017-04-08T09:01:44.073Z,73.65
2017-04-08T09:02:44.109Z,73.84
2017-04-08T09:03:44.454Z,74.04
2017-04-08T09:04:44.190Z,73.27
2017-04-08T09:05:44.226Z,73.36
2017-04-08T09:06:44.267Z,73.46
2017-04-08T09:07:44.312Z,73.55
2017-04-08T09:08:44.654Z,73.65
2017-04-08T09:09:44.384Z,73.17
2017-04-08T09:10:44.426Z,72.79
2017-04-08T09:11:44.464Z,72.98
2017-04-08T09:12:44.804Z,72.88
2017-04-08T09:13:44.542Z,72.88
2017-04-08T09:14:44.590Z,72.88
2017-04-08T09:15:44.623Z,72.31
2017-04-08T09:16:44.661Z,72.6
2017-04-08T09:17:44.701Z,72.31
2017-04-08T09:18:44.740Z,71.73
2017-04-08T09:19:44.784Z,71.93
2017-04-08T09:20:44.816Z,71.55
2017-04-08T09:21:44.861Z,71.36
2017-04-08T09:22:44.899Z,71.36
2017-04-08T09:23:44.934Z,71.45
2017-04-08T09:24:44.975Z,71.36
2017-04-08T09:25:45.017Z,71.73
2017-04-08T09:26:45.057Z,71.73
2017-04-08T09:27:45.092Z,71.26
2017-04-08T09:28:45.137Z,70.97
2017-04-08T09:29:45.173Z,71.11
2017-04-08T09:30:45.213Z,70.87
2017-04-08T09:31:45.256Z,70.87
2017-04-08T09:32:45.292Z,70.62
2017-04-08T09:33:45.635Z,70.97
2017-04-08T09:34:45.375Z,70.78
2017-04-08T09:35:45.408Z,71.45
2017-04-08T09:36:45.450Z,70.43
2017-04-08T09:37:45.792Z,70.53
2017-04-08T09:38:45.532Z,70.53
2017-04-08T09:39:45.600Z,70.15
2017-04-08T09:40:45.609Z,70.53
2017-04-08T09:41:45.645Z,70.62
2017-04-08T09:42:45.690Z,70.43
2017-04-08T09:43:45.726Z,70.43
2017-04-08T09:44:45.763Z,70.24
2017-04-08T09:45:45.812Z,69.76
2017-04-08T09:46:45.858Z,69.57
2017-04-08T09:47:45.886Z,69.67
2017-04-08T09:48:45.928Z,69.48
2017-04-08T09:49:45.967Z,69.86
2017-04-08T09:50:46.003Z,69.57
2017-04-08T09:51:46.044Z,69.09
2017-04-08T09:52:46.085Z,69.32
2017-04-08T09:53:46.123Z,69.29
2017-04-08T09:54:46.164Z,69.38
2017-04-08T09:55:46.506Z,69.29
2017-04-08T09:56:46.239Z,68.65
2017-04-08T09:57:46.281Z,68.36
2017-04-08T09:58:46.324Z,68.46
2017-04-08T09:59:46.669Z,68.55
2017-04-08T10:00:46.405Z,68.55
2017-04-08T10:01:46.440Z,68.46
2017-04-08T10:02:46.485Z,68.55
2017-04-08T10:03:46.521Z,68.94
2017-04-08T10:04:46.561Z,68.74
2017-04-08T10:05:46.599Z,67.98
2017-04-08T10:06:46.641Z,69.13
2017-04-08T10:07:46.679Z,68.46
2017-04-08T10:08:46.722Z,68.17
2017-04-08T10:09:46.764Z,69.03
2017-04-08T10:10:46.803Z,68.27
2017-04-08T10:11:46.846Z,68.07
2017-04-08T10:12:46.887Z,68.74
2017-04-08T10:13:46.923Z,68.21
2017-04-08T10:14:46.959Z,67.82
2017-04-08T10:15:46.999Z,68.21
2017-04-08T10:16:47.039Z,68.78
2017-04-08T10:17:47.084Z,68.21
2017-04-08T10:18:47.120Z,68.01
2017-04-08T10:19:47.164Z,68.21
2017-04-08T10:20:47.202Z,68.01
2017-04-08T10:21:47.244Z,67.54
2017-04-08T10:22:47.588Z,67.66
2017-04-08T10:23:47.332Z,67.47
2017-04-08T10:24:47.678Z,67.38
2017-04-08T10:25:47.409Z,67.28
2017-04-08T10:26:47.448Z,67.57
2017-04-08T10:27:47.491Z,67.09
2017-04-08T10:28:47.534Z,66.89
2017-04-08T10:29:47.575Z,67.09
2017-04-08T10:30:47.614Z,66.51
2017-04-08T10:31:47.653Z,66.22
2017-04-08T10:32:47.694Z,66.61
2017-04-08T10:33:47.732Z,66.51
2017-04-08T10:34:47.778Z,66.42
2017-04-08T10:35:47.817Z,65.94
2017-04-08T10:36:47.858Z,65.78
2017-04-08T10:37:47.897Z,65.97
2017-04-08T10:38:47.941Z,65.75
2017-04-08T10:39:47.982Z,65.49
2017-04-08T10:40:48.024Z,65.39
2017-04-08T10:41:48.065Z,65.3
2017-04-08T10:42:48.103Z,65.49
2017-04-08T10:43:48.149Z,64.72
2017-04-08T10:44:48.187Z,64.92
2017-04-08T10:45:48.231Z,64.25
2017-04-08T10:46:48.288Z,64.53
2017-04-08T10:47:48.311Z,63.96
2017-04-08T10:48:48.354Z,63.86
2017-04-08T10:49:48.395Z,63.19
2017-04-08T10:50:48.436Z,63.67
2017-04-08T10:51:48.479Z,63.48
2017-04-08T10:52:48.520Z,63.96
2017-04-08T10:53:48.559Z,63.57
2017-04-08T10:54:48.603Z,63.29
2017-04-08T10:55:48.643Z,64.09
2017-04-08T10:56:48.989Z,63.89
2017-04-08T10:57:48.728Z,63.22
2017-04-08T10:58:48.771Z,63.6
2017-04-08T10:59:48.811Z,63.99
2017-04-08T11:00:48.852Z,64.18
2017-04-08T11:01:48.896Z,63.16
2017-04-08T11:02:48.936Z,62.87
2017-04-08T11:03:48.984Z,63.16
2017-04-08T11:04:49.019Z,63.12
2017-04-08T11:05:49.071Z,63.06
2017-04-08T11:06:49.109Z,62.77
2017-04-08T11:07:49.473Z,63.06
2017-04-08T11:08:49.192Z,62.1
2017-04-08T11:09:49.237Z,62.19
2017-04-08T11:10:49.276Z,62.19
2017-04-08T11:11:49.321Z,62.29
2017-04-08T11:12:49.364Z,62.1
2017-04-08T11:13:49.407Z,62.39
2017-04-08T11:14:49.444Z,62.61
2017-04-08T11:15:49.491Z,61.72
2017-04-08T11:16:49.532Z,61.84
2017-04-08T11:17:49.576Z,61.72
2017-04-08T11:18:49.616Z,61.36
2017-04-08T11:19:49.658Z,61.91
2017-04-08T11:20:49.699Z,61.75
2017-04-08T11:21:49.742Z,61.65
2017-04-08T11:22:49.803Z,61.72
2017-04-08T11:23:49.827Z,61.46
2017-04-08T11:24:49.919Z,60.98
2017-04-08T11:25:49.912Z,61.27
2017-04-08T11:26:49.958Z,60.6
2017-04-08T11:27:50.000Z,60.6
2017-04-08T11:28:50.345Z,60.4
2017-04-08T11:29:50.091Z,60.31
2017-04-08T11:30:50.128Z,60.31
2017-04-08T11:31:50.170Z,60.21
2017-04-08T11:32:50.521Z,60.31
2017-04-08T11:33:50.262Z,60.11
2017-04-08T11:34:50.298Z,60.11
2017-04-08T11:35:50.341Z,60.02
2017-04-08T11:36:50.380Z,59.64
2017-04-08T11:37:50.432Z,59.73
2017-04-08T11:38:50.465Z,59.73
2017-04-08T11:39:50.511Z,60.02
2017-04-08T11:40:50.553Z,59.25
2017-04-08T11:41:50.599Z,59.25
2017-04-08T11:42:50.634Z,58.96
2017-04-08T11:43:50.679Z,58.96
2017-04-08T11:44:50.718Z,58.39
2017-04-08T11:45:50.763Z,58.67
2017-04-08T11:46:50.827Z,58.58
2017-04-08T11:47:50.844Z,58.58
2017-04-08T11:48:50.886Z,58.96
2017-04-08T11:49:50.930Z,58.29
2017-04-08T11:50:51.099Z,58.2
2017-04-08T11:51:51.018Z,57.9
2017-04-08T11:52:51.064Z,57.81
2017-04-08T11:53:51.097Z,57.68
2017-04-08T11:54:51.140Z,58.2
2017-04-08T11:55:51.183Z,57.88
2017-04-08T11:56:51.224Z,57.68
2017-04-08T11:57:51.565Z,57.68
2017-04-08T11:58:51.306Z,58.26
2017-04-08T11:59:51.355Z,57.5
2017-04-08T12:00:51.392Z,57.88
2017-04-08T12:01:51.445Z,58.45
2017-04-08T12:02:51.473Z,58.26
2017-04-08T12:03:51.513Z,57.59
2017-04-08T12:04:51.553Z,57.97
2017-04-08T12:05:51.595Z,57.88
2017-04-08T12:06:51.637Z,58.07
2017-04-08T12:07:51.682Z,57.78
2017-04-08T12:08:51.718Z,57.78
2017-04-08T12:09:51.763Z,57.43
2017-04-08T12:10:51.806Z,57.68
2017-04-08T12:11:51.845Z,57.78
2017-04-08T12:12:51.884Z,57.5
2017-04-08T12:13:51.927Z,58.07
2017-04-08T12:14:51.966Z,57.4
2017-04-08T12:15:52.009Z,57.3
2017-04-08T12:16:52.054Z,57.4
2017-04-08T12:17:52.092Z,57.68
2017-04-08T12:18:52.133Z,57.3
2017-04-08T12:19:52.173Z,57.68
2017-04-08T12:20:52.216Z,57.3
2017-04-08T12:21:52.260Z,57.3
2017-04-08T12:22:52.296Z,57.01
2017-04-08T12:23:52.339Z,57.21
2017-04-08T12:24:52.383Z,57.11
2017-04-08T12:26:07.340Z,57.11
2017-04-08T12:26:52.465Z,57.11
2017-04-08T12:27:52.506Z,57.01
2017-04-08T12:28:52.543Z,56.82
2017-04-08T12:29:52.590Z,57.01
2017-04-08T12:30:52.628Z,56.92
2017-04-08T12:31:52.666Z,56.92
2017-04-08T12:32:52.748Z,56.92
2017-04-08T12:33:52.747Z,56.98
2017-04-08T12:34:52.997Z,57.37
2017-04-08T12:35:52.841Z,56.89
2017-04-08T12:36:52.871Z,56.98
2017-04-08T12:37:52.921Z,57.08
2017-04-08T12:38:53.256Z,56.98
2017-04-08T12:39:52.995Z,57.08
2017-04-08T12:40:53.039Z,57.28
2017-04-08T12:41:53.076Z,57.28
2017-04-08T12:42:53.116Z,56.6
2017-04-08T12:43:53.173Z,56.7
2017-04-08T12:44:53.195Z,56.98
2017-04-08T12:45:53.237Z,56.89
2017-04-08T12:46:53.280Z,56.79
2017-04-08T12:47:53.319Z,56.51
2017-04-08T12:48:53.363Z,56.51
2017-04-08T12:49:53.396Z,56.6
2017-04-08T12:50:53.441Z,56.41
2017-04-08T12:51:53.476Z,55.93
2017-04-08T12:52:53.586Z,56.22
2017-04-08T12:53:53.761Z,56.19
2017-04-08T12:54:53.604Z,56.7